createdAt,value
2019-03-01T00:01:57.728Z,40.53
2019-03-01T00:05:36.634Z,38.17
2019-03-01T00:09:32.073Z,39.83
2019-03-01T00:12:49.738Z,36.93
2019-03-01T00:16:12.045Z,38.43
2019-03-01T00:19:53.184Z,37.70
2019-03-01T00:23:50.355Z,37.37
2019-03-01T00:27:52.039Z,38.00
2019-03-01T00:31:30.999Z,38.70
2019-03-01T00:35:29.575Z,36.70
2019-03-01T00:39:00.373Z,36.60
2019-03-01T00:42:36.857Z,35.07
2019-03-01T00:45:42.163Z,34.90
2019-03-01T00:48:47.535Z,33.60
2019-03-01T00:51:52.810Z,33.07
2019-03-01T00:54:58.083Z,32.37
2019-03-01T00:58:03.540Z,31.00
2019-03-01T01:01:08.838Z,33.00
2019-03-01T01:04:18.973Z,32.40
2019-03-01T01:07:21.145Z,30.40
2019-03-01T01:10:28.851Z,29.17
2019-03-01T01:13:34.048Z,30.20
2019-03-01T01:16:39.335Z,31.30
2019-03-01T01:19:44.573Z,29.80
2019-03-01T01:22:49.874Z,29.60
2019-03-01T01:25:55.138Z,32.33
2019-03-01T01:29:00.430Z,30.50
2019-03-01T01:32:05.850Z,30.60
2019-03-01T01:35:11.166Z,30.70
2019-03-01T01:38:16.405Z,31.27
2019-03-01T01:41:21.733Z,32.07
2019-03-01T01:44:27.010Z,31.80
2019-03-01T01:47:32.225Z,32.57
2019-03-01T01:50:37.550Z,33.30
2019-03-01T01:53:42.819Z,29.90
2019-03-01T01:56:48.201Z,31.20
2019-03-01T01:59:53.439Z,30.40
2019-03-01T02:02:58.800Z,30.87
2019-03-01T02:06:04.058Z,32.70
2019-03-01T02:09:24.578Z,29.97
2019-03-01T02:12:30.028Z,32.70
2019-03-01T02:15:35.310Z,31.20
2019-03-01T02:18:40.590Z,32.30
2019-03-01T02:21:45.864Z,28.80
2019-03-01T02:24:51.378Z,30.67
2019-03-01T02:27:56.629Z,30.57
2019-03-01T02:31:04.258Z,30.40
2019-03-01T02:34:09.511Z,28.93
2019-03-01T02:37:17.074Z,30.43
2019-03-01T02:40:22.321Z,29.57
2019-03-01T02:43:27.630Z,29.07
2019-03-01T02:46:32.907Z,28.53
2019-03-01T02:49:38.212Z,31.10
2019-03-01T02:52:43.575Z,28.23
2019-03-01T02:55:48.819Z,29.77
2019-03-01T02:58:54.121Z,29.83
2019-03-01T03:01:59.394Z,32.00
2019-03-01T03:05:05.905Z,30.80
2019-03-01T03:08:11.212Z,30.57
2019-03-01T03:11:16.478Z,31.23
2019-03-01T03:14:21.825Z,30.77
2019-03-01T03:17:27.085Z,30.10
2019-03-01T03:20:32.334Z,30.20
2019-03-01T03:23:37.554Z,30.33
2019-03-01T03:26:42.804Z,31.17
2019-03-01T03:29:50.196Z,32.30
2019-03-01T03:32:56.159Z,31.43
2019-03-01T03:36:01.449Z,30.90
2019-03-01T03:39:08.985Z,32.27
2019-03-01T03:42:14.321Z,32.20
2019-03-01T03:45:19.745Z,32.70
2019-03-01T03:48:25.890Z,32.57
2019-03-01T03:51:31.153Z,33.43
2019-03-01T03:54:36.399Z,32.87
2019-03-01T03:57:41.792Z,34.13
2019-03-01T04:00:47.007Z,34.77
2019-03-01T04:03:52.262Z,33.63
2019-03-01T04:06:57.532Z,32.47
2019-03-01T04:10:02.844Z,33.07
2019-03-01T04:13:09.105Z,33.57
2019-03-01T04:16:14.347Z,33.37
2019-03-01T04:19:19.572Z,32.30
2019-03-01T04:22:24.948Z,34.60
2019-03-01T04:25:30.421Z,36.47
2019-03-01T04:28:35.738Z,36.60
2019-03-01T04:31:41.030Z,35.80
2019-03-01T04:34:47.457Z,35.17
2019-03-01T04:37:52.736Z,34.07
2019-03-01T04:40:57.988Z,34.70
2019-03-01T04:44:03.197Z,33.83
2019-03-01T04:47:08.785Z,31.53
2019-03-01T04:50:14.087Z,32.33
2019-03-01T04:53:19.364Z,32.50
2019-03-01T04:56:24.659Z,32.80
2019-03-01T04:59:30.938Z,32.90
2019-03-01T05:02:36.297Z,34.23
2019-03-01T05:05:41.573Z,36.50
2019-03-01T05:08:46.875Z,32.90
2019-03-01T05:11:52.159Z,34.60
2019-03-01T05:14:57.427Z,34.20
2019-03-01T05:18:02.712Z,34.97
2019-03-01T05:21:07.975Z,35.43
2019-03-01T05:24:13.226Z,35.30
2019-03-01T05:27:18.597Z,34.20
2019-03-01T05:30:23.844Z,35.20
2019-03-01T05:33:29.132Z,37.53
2019-03-01T05:36:34.464Z,35.50
2019-03-01T05:39:41.060Z,35.77
2019-03-01T05:42:46.413Z,37.47
2019-03-01T05:45:51.673Z,37.13
2019-03-01T05:48:57.313Z,37.07
2019-03-01T05:52:02.714Z,36.60
2019-03-01T05:55:08.216Z,37.73
2019-03-01T05:58:33.378Z,37.77
2019-03-01T06:01:43.898Z,36.07
2019-03-01T06:04:52.839Z,36.50
2019-03-01T06:08:51.799Z,35.30
2019-03-01T06:12:29.928Z,35.33
2019-03-01T06:16:22.216Z,34.90
2019-03-01T06:20:11.153Z,34.60
2019-03-01T06:23:38.364Z,33.33
2019-03-01T06:27:29.633Z,34.20
2019-03-01T06:31:15.979Z,33.00
2019-03-01T06:35:08.267Z,35.33
2019-03-01T06:39:33.606Z,34.30
2019-03-01T06:43:15.001Z,26.17
2019-03-01T06:46:48.642Z,23.17
2019-03-01T06:50:09.654Z,23.30
2019-03-01T06:53:15.998Z,24.20
2019-03-01T06:56:21.319Z,23.03
2019-03-01T06:59:26.609Z,22.13
2019-03-01T07:02:40.226Z,22.97
2019-03-01T07:05:45.669Z,21.07
2019-03-01T07:08:51.107Z,20.20
2019-03-01T07:11:56.487Z,19.03
2019-03-01T07:15:01.794Z,19.53
2019-03-01T07:18:08.076Z,20.63
2019-03-01T07:21:13.345Z,20.20
2019-03-01T07:24:18.706Z,22.40
2019-03-01T07:27:24.042Z,22.13
2019-03-01T07:30:48.493Z,21.30
2019-03-01T07:34:05.737Z,22.90
2019-03-01T07:37:13.109Z,22.10
2019-03-01T07:40:18.425Z,21.60
2019-03-01T07:43:23.696Z,23.73
2019-03-01T07:46:28.981Z,21.90
2019-03-01T07:49:34.246Z,21.50
2019-03-01T07:52:39.563Z,21.90
2019-03-01T07:55:46.547Z,21.30
2019-03-01T07:58:51.884Z,23.20
2019-03-01T08:01:57.163Z,23.50
2019-03-01T08:05:04.214Z,22.50
2019-03-01T08:08:09.384Z,23.43
2019-03-01T08:11:14.666Z,23.83
2019-03-01T08:14:20.003Z,23.50
2019-03-01T08:17:27.645Z,24.47
2019-03-01T08:20:33.819Z,26.03
2019-03-01T08:23:39.479Z,24.63
2019-03-01T08:26:44.784Z,25.40
2019-03-01T08:29:52.317Z,25.90
2019-03-01T08:32:57.620Z,24.33
2019-03-01T08:36:05.844Z,24.60
2019-03-01T08:39:09.929Z,25.40
2019-03-01T08:42:15.241Z,24.83
2019-03-01T08:45:20.522Z,25.10
2019-03-01T08:48:25.737Z,24.80
2019-03-01T08:51:31.177Z,25.50
2019-03-01T08:54:36.426Z,25.97
2019-03-01T08:57:44.478Z,25.60
2019-03-01T09:00:48.793Z,25.30
2019-03-01T09:04:01.791Z,30.83
2019-03-01T09:07:07.167Z,32.60
2019-03-01T09:10:14.188Z,33.60
2019-03-01T09:13:19.423Z,32.40
2019-03-01T09:16:24.658Z,33.80
2019-03-01T09:19:29.938Z,33.60
2019-03-01T09:22:35.158Z,33.80
2019-03-01T09:25:41.384Z,35.20
2019-03-01T09:28:47.496Z,34.30
2019-03-01T09:31:54.282Z,34.10
2019-03-01T09:35:26.436Z,33.97
2019-03-01T09:38:31.885Z,35.10
2019-03-01T09:41:40.602Z,42.10
2019-03-01T09:44:44.171Z,44.33
2019-03-01T09:47:49.486Z,48.40
2019-03-01T09:50:56.099Z,50.47
2019-03-01T09:54:01.372Z,48.90
2019-03-01T09:57:06.718Z,49.87
2019-03-01T10:00:13.367Z,49.60
2019-03-01T10:03:18.619Z,50.83
2019-03-01T10:06:23.843Z,48.27
2019-03-01T10:09:29.167Z,46.87
2019-03-01T10:12:34.400Z,45.53
2019-03-01T10:15:39.789Z,43.70
2019-03-01T10:18:46.595Z,45.80
2019-03-01T10:21:53.467Z,50.40
2019-03-01T10:24:58.739Z,48.93
2019-03-01T10:28:04.103Z,44.60
2019-03-01T10:31:09.456Z,45.57
2019-03-01T10:34:14.744Z,49.00
2019-03-01T10:37:31.589Z,46.73
2019-03-01T10:40:36.927Z,45.03
2019-03-01T10:43:42.238Z,37.40
2019-03-01T10:46:47.485Z,36.00
2019-03-01T10:49:54.367Z,34.97
2019-03-01T10:52:59.625Z,35.17
2019-03-01T10:56:04.971Z,33.93
2019-03-01T10:59:10.268Z,32.90
2019-03-01T11:02:15.543Z,31.20
2019-03-01T11:05:20.957Z,29.13
2019-03-01T11:08:26.231Z,29.90
2019-03-01T11:11:31.506Z,28.30
2019-03-01T11:14:36.800Z,28.43
2019-03-01T11:17:42.134Z,27.47
2019-03-01T11:20:47.480Z,25.97
2019-03-01T11:23:52.739Z,25.47
2019-03-01T11:26:58.099Z,25.70
2019-03-01T11:30:03.456Z,25.60
2019-03-01T11:33:08.834Z,23.87
2019-03-01T11:36:14.098Z,22.87
2019-03-01T11:39:19.755Z,21.40
2019-03-01T11:42:25.067Z,19.87
2019-03-01T11:45:30.418Z,15.97
2019-03-01T11:48:35.661Z,16.27
2019-03-01T11:51:40.997Z,16.63
2019-03-01T11:54:58.471Z,15.17
2019-03-01T11:58:03.778Z,15.50
2019-03-01T12:01:16.930Z,14.67
2019-03-01T12:04:16.230Z,14.07
2019-03-01T12:07:21.585Z,15.10
2019-03-01T12:10:27.035Z,13.50
2019-03-01T12:13:33.500Z,16.00
2019-03-01T12:16:38.766Z,17.93
2019-03-01T12:19:44.120Z,19.13
2019-03-01T12:22:51.857Z,20.63
2019-03-01T12:25:57.241Z,19.03
2019-03-01T12:29:21.538Z,20.30
2019-03-01T12:32:26.796Z,19.43
2019-03-01T12:35:32.146Z,18.03
2019-03-01T12:38:37.405Z,18.47
2019-03-01T12:41:42.710Z,18.63
2019-03-01T12:44:48.027Z,17.37
2019-03-01T12:47:53.318Z,17.50
2019-03-01T12:50:58.635Z,16.07
2019-03-01T12:54:03.893Z,17.00
2019-03-01T12:57:09.179Z,16.43
2019-03-01T13:00:17.011Z,17.20
2019-03-01T13:03:22.246Z,16.70
2019-03-01T13:06:27.688Z,16.73
2019-03-01T13:09:33.103Z,16.87
2019-03-01T13:12:38.420Z,16.97
2019-03-01T13:15:45.439Z,16.37
2019-03-01T13:18:52.363Z,15.50
2019-03-01T13:21:58.765Z,17.13
2019-03-01T13:25:04.070Z,14.83
2019-03-01T13:28:09.321Z,16.30
2019-03-01T13:31:17.608Z,16.73
2019-03-01T13:34:22.898Z,17.90
2019-03-01T13:37:28.196Z,18.07
2019-03-01T13:40:33.477Z,18.03
2019-03-01T13:43:38.836Z,17.40
2019-03-01T13:46:44.074Z,17.67
2019-03-01T13:49:49.396Z,15.20
2019-03-01T13:52:54.739Z,16.67
2019-03-01T13:56:01.112Z,15.57
2019-03-01T13:59:06.588Z,16.83
2019-03-01T14:02:11.951Z,15.37
2019-03-01T14:05:17.642Z,15.57
2019-03-01T14:08:23.044Z,16.87
2019-03-01T14:11:30.345Z,13.97
2019-03-01T14:14:35.874Z,12.90
2019-03-01T14:17:41.184Z,12.80
2019-03-01T14:20:46.442Z,10.23
2019-03-01T14:23:51.762Z,10.13
2019-03-01T14:26:59.067Z,10.33
2019-03-01T14:30:04.032Z,10.73
2019-03-01T14:33:09.361Z,9.70
2019-03-01T14:36:14.712Z,10.90
2019-03-01T14:39:19.977Z,11.17
2019-03-01T14:42:25.231Z,9.13
2019-03-01T14:45:30.602Z,10.83
2019-03-01T14:48:35.963Z,9.20
2019-03-01T14:51:46.509Z,9.20
2019-03-01T14:54:49.340Z,8.53
2019-03-01T14:58:13.326Z,7.70
2019-03-01T15:01:49.017Z,8.80
2019-03-01T15:04:54.447Z,8.67
2019-03-01T15:07:59.709Z,8.60
2019-03-01T15:11:10.835Z,10.23
2019-03-01T15:14:16.105Z,9.03
2019-03-01T15:17:22.576Z,9.87
2019-03-01T15:20:28.056Z,8.73
2019-03-01T15:23:33.410Z,10.23
2019-03-01T15:26:40.312Z,9.57
2019-03-01T15:29:45.560Z,9.17
2019-03-01T15:32:52.456Z,9.50
2019-03-01T15:35:57.949Z,8.33
2019-03-01T15:39:05.739Z,8.00
2019-03-01T15:42:14.384Z,7.77
2019-03-01T15:45:18.704Z,8.40
2019-03-01T15:48:23.964Z,5.90
2019-03-01T15:51:29.274Z,5.43
2019-03-01T15:54:35.755Z,6.50
2019-03-01T15:57:41.744Z,6.10
2019-03-01T16:00:48.951Z,6.30
2019-03-01T16:03:57.137Z,6.00
2019-03-01T16:07:01.210Z,7.83
2019-03-01T16:10:07.714Z,6.33
2019-03-01T16:13:13.337Z,6.37
2019-03-01T16:16:18.772Z,5.60
2019-03-01T16:19:24.039Z,5.57
2019-03-01T16:22:29.295Z,5.67
2019-03-01T16:25:34.662Z,5.73
2019-03-01T16:28:39.983Z,5.20
2019-03-01T16:31:45.260Z,5.93
2019-03-01T16:34:50.536Z,6.00
2019-03-01T16:37:57.886Z,6.10
2019-03-01T16:41:07.540Z,5.23
2019-03-01T16:44:10.384Z,5.93
2019-03-01T16:47:15.629Z,6.30
2019-03-01T16:50:21.214Z,6.23
2019-03-01T16:53:28.809Z,6.83
2019-03-01T16:56:34.578Z,6.60
2019-03-01T16:59:42.821Z,6.40
2019-03-01T17:02:49.065Z,6.97
2019-03-01T17:05:55.142Z,6.83
2019-03-01T17:09:01.645Z,6.80
2019-03-01T17:12:08.623Z,6.93
2019-03-01T17:15:18.361Z,6.10
2019-03-01T17:18:23.400Z,6.43
2019-03-01T17:21:33.739Z,6.43
2019-03-01T17:24:39.131Z,6.43
2019-03-01T17:27:44.561Z,6.63
2019-03-01T17:30:50.601Z,6.67
2019-03-01T17:33:57.997Z,6.20
2019-03-01T17:37:03.454Z,7.37
2019-03-01T17:40:10.389Z,6.67
2019-03-01T17:43:15.653Z,6.10
2019-03-01T17:46:20.936Z,6.70
2019-03-01T17:49:29.670Z,5.90
2019-03-01T17:52:33.681Z,5.67
2019-03-01T17:55:41.754Z,5.43
2019-03-01T17:58:47.063Z,5.80
2019-03-01T18:01:52.416Z,5.57
2019-03-01T18:04:57.777Z,4.97
2019-03-01T18:08:04.957Z,5.00
2019-03-01T18:11:10.478Z,5.33
2019-03-01T18:14:15.738Z,5.40
2019-03-01T18:17:21.001Z,5.30
2019-03-01T18:20:26.274Z,5.60
2019-03-01T18:23:34.270Z,6.70
2019-03-01T18:26:39.978Z,7.50
2019-03-01T18:29:45.708Z,6.50
2019-03-01T18:32:51.106Z,7.00
2019-03-01T18:35:59.130Z,7.03
2019-03-01T18:39:06.992Z,6.00
2019-03-01T18:42:13.268Z,7.00
2019-03-01T18:45:18.790Z,6.90
2019-03-01T18:48:24.170Z,6.40
2019-03-01T18:51:29.516Z,5.97
2019-03-01T18:54:35.906Z,5.20
2019-03-01T18:57:42.032Z,5.63
2019-03-01T19:00:47.560Z,5.30
2019-03-01T19:03:52.939Z,6.07
2019-03-01T19:06:58.339Z,5.23
2019-03-01T19:10:06.761Z,5.33
2019-03-01T19:13:13.294Z,5.60
2019-03-01T19:16:18.745Z,7.37
2019-03-01T19:19:29.901Z,5.20
2019-03-01T19:22:31.242Z,5.03
2019-03-01T19:25:36.599Z,5.20
2019-03-01T19:28:42.895Z,5.30
2019-03-01T19:31:48.286Z,5.60
2019-03-01T19:34:53.793Z,5.60
2019-03-01T19:37:59.214Z,5.30
2019-03-01T19:41:04.718Z,5.20
2019-03-01T19:44:10.044Z,5.37
2019-03-01T19:47:15.339Z,5.17
2019-03-01T19:50:21.814Z,5.00
2019-03-01T19:53:27.734Z,7.03
2019-03-01T19:56:33.099Z,5.10
2019-03-01T19:59:38.450Z,5.40
2019-03-01T20:02:43.874Z,6.13
2019-03-01T20:05:49.233Z,8.23
2019-03-01T20:08:54.594Z,6.70
2019-03-01T20:12:02.755Z,5.83
2019-03-01T20:15:10.571Z,7.03
2019-03-01T20:18:15.953Z,6.63
2019-03-01T20:21:21.341Z,5.43
2019-03-01T20:24:27.769Z,6.20
2019-03-01T20:27:35.576Z,5.60
2019-03-01T20:30:39.974Z,6.03
2019-03-01T20:33:45.434Z,6.13
2019-03-01T20:36:52.966Z,6.50
2019-03-01T20:39:57.900Z,6.53
2019-03-01T20:43:07.177Z,6.07
2019-03-01T20:46:13.511Z,6.63
2019-03-01T20:49:18.785Z,6.50
2019-03-01T20:52:24.103Z,7.60
2019-03-01T20:55:29.435Z,8.10
2019-03-01T20:58:35.877Z,8.07
2019-03-01T21:01:42.028Z,8.13
2019-03-01T21:04:53.311Z,7.77
2019-03-01T21:07:54.891Z,7.57
2019-03-01T21:11:00.533Z,7.73
2019-03-01T21:14:07.401Z,7.90
2019-03-01T21:17:12.790Z,8.73
2019-03-01T21:20:19.568Z,7.90
2019-03-01T21:23:25.225Z,9.13
2019-03-01T21:26:31.398Z,9.00
2019-03-01T21:29:36.686Z,7.43
2019-03-01T21:32:41.992Z,7.50
2019-03-01T21:35:47.806Z,7.53
2019-03-01T21:38:54.444Z,7.60
2019-03-01T21:41:59.780Z,8.03
2019-03-01T21:45:05.629Z,7.50
2019-03-01T21:48:11.000Z,8.10
2019-03-01T21:51:18.421Z,7.03
2019-03-01T21:54:23.194Z,7.57
2019-03-01T21:57:31.177Z,7.43
2019-03-01T22:00:35.548Z,7.50
2019-03-01T22:03:43.045Z,7.50
2019-03-01T22:06:48.324Z,7.00
2019-03-01T22:09:56.759Z,6.70
2019-03-01T22:13:01.426Z,6.83
2019-03-01T22:16:06.788Z,6.83
2019-03-01T22:19:12.193Z,7.10
2019-03-01T22:22:18.585Z,7.30
2019-03-01T22:25:23.864Z,6.83
2019-03-01T22:28:32.704Z,6.50
2019-03-01T22:31:37.245Z,6.70
2019-03-01T22:34:42.619Z,6.73
2019-03-01T22:37:48.037Z,6.47
2019-03-01T22:40:53.357Z,6.23
2019-03-01T22:44:01.724Z,6.10
2019-03-01T22:47:05.662Z,6.00
2019-03-01T22:50:13.909Z,6.50
2019-03-01T22:53:19.217Z,6.07
2019-03-01T22:56:24.612Z,6.03
2019-03-01T22:59:30.097Z,6.57
2019-03-01T23:02:35.783Z,6.57
2019-03-01T23:05:41.021Z,6.30
2019-03-01T23:08:46.323Z,6.80
2019-03-01T23:11:51.577Z,6.77
2019-03-01T23:14:56.940Z,6.93
2019-03-01T23:18:05.641Z,7.80
2019-03-01T23:21:09.176Z,7.47
2019-03-01T23:24:14.510Z,7.53
2019-03-01T23:27:19.864Z,7.13
2019-03-01T23:30:25.745Z,7.17
2019-03-01T23:33:32.724Z,7.00
2019-03-01T23:36:38.169Z,6.80
2019-03-01T23:39:43.427Z,7.37
2019-03-01T23:42:48.697Z,6.93
2019-03-01T23:45:55.220Z,7.10
2019-03-01T23:49:06.188Z,7.00
2019-03-01T23:52:07.698Z,6.93
2019-03-01T23:55:15.665Z,6.93
2019-03-01T23:58:20.121Z,7.83
